createdAt,value
2019-01-27T00:00:35.788Z,2.60
2019-01-27T00:01:40.494Z,3.10
2019-01-27T00:02:45.024Z,2.70
2019-01-27T00:03:49.600Z,3.00
2019-01-27T00:04:54.102Z,2.73
2019-01-27T00:05:58.604Z,2.70
2019-01-27T00:07:03.263Z,2.63
2019-01-27T00:08:13.427Z,2.83
2019-01-27T00:09:14.127Z,2.60
2019-01-27T00:10:21.684Z,2.90
2019-01-27T00:11:26.528Z,2.37
2019-01-27T00:12:31.039Z,2.87
2019-01-27T00:13:35.548Z,2.52
2019-01-27T00:14:40.082Z,2.42
2019-01-27T00:15:44.601Z,2.30
2019-01-27T00:16:49.134Z,2.70
2019-01-27T00:17:53.661Z,2.47
2019-01-27T00:18:58.331Z,2.60
2019-01-27T00:20:03.045Z,2.57
2019-01-27T00:21:07.639Z,2.30
2019-01-27T00:22:12.132Z,2.70
2019-01-27T00:23:16.702Z,2.77
2019-01-27T00:24:21.195Z,2.80
2019-01-27T00:25:25.685Z,2.80
2019-01-27T00:26:30.190Z,3.10
2019-01-27T00:27:34.688Z,2.90
2019-01-27T00:28:39.208Z,3.12
2019-01-27T00:29:43.699Z,3.07
2019-01-27T00:30:48.201Z,3.30
2019-01-27T00:31:52.784Z,3.17
2019-01-27T00:32:57.300Z,2.80
2019-01-27T00:34:02.810Z,2.80
2019-01-27T00:35:07.412Z,2.85
2019-01-27T00:36:11.991Z,3.10
2019-01-27T00:37:16.489Z,2.87
2019-01-27T00:38:21.283Z,2.37
2019-01-27T00:39:25.824Z,2.80
2019-01-27T00:40:30.401Z,2.53
2019-01-27T00:41:36.359Z,2.50
2019-01-27T00:42:41.416Z,2.47
2019-01-27T00:43:46.012Z,2.50
2019-01-27T00:44:50.510Z,2.43
2019-01-27T00:45:54.995Z,2.47
2019-01-27T00:46:59.482Z,2.23
2019-01-27T00:48:05.201Z,2.43
2019-01-27T00:49:09.798Z,2.63
2019-01-27T00:50:18.683Z,2.67
2019-01-27T00:51:23.454Z,2.87
2019-01-27T00:52:28.035Z,2.30
2019-01-27T00:53:32.564Z,2.75
2019-01-27T00:54:37.057Z,2.50
2019-01-27T00:55:41.586Z,2.45
2019-01-27T00:56:46.117Z,2.15
2019-01-27T00:57:50.818Z,2.17
2019-01-27T00:58:56.975Z,2.40
2019-01-27T01:00:01.487Z,2.47
2019-01-27T01:01:06.080Z,2.57
2019-01-27T01:02:10.615Z,2.10
2019-01-27T01:03:15.102Z,2.13
2019-01-27T01:04:19.637Z,2.22
2019-01-27T01:05:24.409Z,2.37
2019-01-27T01:06:30.547Z,2.00
2019-01-27T01:07:35.032Z,2.27
2019-01-27T01:08:39.560Z,2.50
2019-01-27T01:09:44.081Z,2.00
2019-01-27T01:10:48.640Z,2.07
2019-01-27T01:11:53.465Z,2.47
2019-01-27T01:12:58.041Z,2.30
2019-01-27T01:14:02.572Z,2.30
2019-01-27T01:15:10.424Z,2.10
2019-01-27T01:16:14.981Z,2.25
2019-01-27T01:17:19.568Z,2.10
2019-01-27T01:18:24.088Z,2.45
2019-01-27T01:19:28.647Z,2.60
2019-01-27T01:20:33.265Z,2.20
2019-01-27T01:21:37.945Z,2.10
2019-01-27T01:22:42.604Z,2.17
2019-01-27T01:23:47.103Z,2.50
2019-01-27T01:24:51.626Z,2.35
2019-01-27T01:25:56.135Z,2.27
2019-01-27T01:27:00.630Z,2.00
2019-01-27T01:28:07.433Z,1.90
2019-01-27T01:29:12.906Z,2.20
2019-01-27T01:30:20.192Z,1.85
2019-01-27T01:31:24.707Z,1.90
2019-01-27T01:32:29.230Z,1.77
2019-01-27T01:33:33.755Z,2.05
2019-01-27T01:34:38.279Z,2.10
2019-01-27T01:35:42.788Z,1.90
2019-01-27T01:36:47.864Z,1.75
2019-01-27T01:37:52.502Z,2.00
2019-01-27T01:38:57.025Z,1.83
2019-01-27T01:40:01.491Z,2.20
2019-01-27T01:41:06.108Z,2.12
2019-01-27T01:42:12.140Z,2.00
2019-01-27T01:43:16.737Z,1.90
2019-01-27T01:44:21.244Z,1.90
2019-01-27T01:45:32.118Z,1.80
2019-01-27T01:46:36.626Z,2.00
2019-01-27T01:47:41.115Z,2.10
2019-01-27T01:48:45.684Z,1.60
2019-01-27T01:49:50.204Z,1.77
2019-01-27T01:50:54.710Z,2.02
2019-01-27T01:51:59.228Z,1.70
2019-01-27T01:53:04.115Z,2.05
2019-01-27T01:54:08.666Z,1.80
2019-01-27T01:55:15.024Z,1.90
2019-01-27T01:56:19.523Z,2.12
2019-01-27T01:57:24.051Z,2.17
2019-01-27T01:58:28.559Z,1.90
2019-01-27T01:59:33.154Z,1.77
2019-01-27T02:00:39.025Z,1.90
2019-01-27T02:01:43.602Z,2.00
2019-01-27T02:02:48.269Z,1.90
2019-01-27T02:03:52.928Z,2.00
2019-01-27T02:04:57.424Z,1.77
2019-01-27T02:06:01.930Z,2.10
2019-01-27T02:07:06.497Z,2.08
2019-01-27T02:08:11.039Z,2.10
2019-01-27T02:09:15.548Z,1.97
2019-01-27T02:10:22.096Z,1.73
2019-01-27T02:11:26.649Z,1.77
2019-01-27T02:12:31.179Z,1.52
2019-01-27T02:13:35.689Z,2.20
2019-01-27T02:14:40.288Z,1.70
2019-01-27T02:15:59.160Z,1.85
2019-01-27T02:17:03.764Z,1.80
2019-01-27T02:18:08.404Z,1.70
2019-01-27T02:19:12.881Z,1.60
2019-01-27T02:20:17.420Z,1.70
2019-01-27T02:21:21.934Z,1.97
2019-01-27T02:22:26.445Z,1.73
2019-01-27T02:23:31.270Z,1.60
2019-01-27T02:24:36.220Z,2.07
2019-01-27T02:25:40.682Z,1.63
2019-01-27T02:26:45.222Z,1.55
2019-01-27T02:27:50.183Z,1.67
2019-01-27T02:28:54.676Z,1.80
2019-01-27T02:30:00.328Z,1.72
2019-01-27T02:31:05.152Z,1.87
2019-01-27T02:32:09.813Z,1.70
2019-01-27T02:33:14.325Z,1.90
2019-01-27T02:34:18.850Z,1.90
2019-01-27T02:35:23.367Z,1.90
2019-01-27T02:36:28.464Z,1.70
2019-01-27T02:37:33.028Z,2.00
2019-01-27T02:38:38.109Z,1.65
2019-01-27T02:39:42.911Z,2.10
2019-01-27T02:40:47.400Z,1.70
2019-01-27T02:41:51.940Z,1.72
2019-01-27T02:42:56.468Z,1.70
2019-01-27T02:44:02.488Z,1.80
2019-01-27T02:45:09.813Z,1.90
2019-01-27T02:46:15.671Z,2.00
2019-01-27T02:47:20.192Z,1.72
2019-01-27T02:48:24.670Z,1.97
2019-01-27T02:49:29.228Z,1.80
2019-01-27T02:50:33.749Z,1.75
2019-01-27T02:51:38.254Z,1.67
2019-01-27T02:52:42.774Z,1.82
2019-01-27T02:53:47.414Z,1.80
2019-01-27T02:54:51.974Z,1.90
2019-01-27T02:55:56.509Z,1.92
2019-01-27T02:57:01.018Z,1.73
2019-01-27T02:58:05.799Z,1.90
2019-01-27T02:59:10.270Z,1.83
2019-01-27T03:00:20.177Z,1.67
2019-01-27T03:01:24.739Z,2.00
2019-01-27T03:02:29.237Z,1.60
2019-01-27T03:03:33.977Z,1.72
2019-01-27T03:04:38.468Z,1.83
2019-01-27T03:05:47.672Z,2.00
2019-01-27T03:06:53.900Z,1.92
2019-01-27T03:07:58.412Z,1.80
2019-01-27T03:09:04.599Z,2.08
2019-01-27T03:10:12.372Z,1.70
2019-01-27T03:11:16.868Z,1.70
2019-01-27T03:12:21.468Z,1.72
2019-01-27T03:13:25.995Z,1.50
2019-01-27T03:14:30.499Z,1.70
2019-01-27T03:15:35.062Z,1.70
2019-01-27T03:16:39.556Z,1.73
2019-01-27T03:17:44.074Z,1.62
2019-01-27T03:18:48.572Z,1.50
2019-01-27T03:19:53.344Z,1.75
2019-01-27T03:20:57.858Z,1.70
2019-01-27T03:22:02.388Z,1.40
2019-01-27T03:23:06.880Z,1.80
2019-01-27T03:24:11.374Z,1.70
2019-01-27T03:25:17.695Z,1.60
2019-01-27T03:26:22.209Z,1.57
2019-01-27T03:27:26.743Z,1.70
2019-01-27T03:28:31.239Z,1.70
2019-01-27T03:29:35.755Z,2.00
2019-01-27T03:30:40.345Z,1.90
2019-01-27T03:31:44.879Z,2.00
2019-01-27T03:32:49.634Z,2.08
2019-01-27T03:33:54.115Z,2.00
2019-01-27T03:34:58.627Z,2.30
2019-01-27T03:36:03.122Z,1.97
2019-01-27T03:37:07.688Z,2.10
2019-01-27T03:38:12.341Z,1.83
2019-01-27T03:39:16.943Z,2.00
2019-01-27T03:40:21.866Z,2.00
2019-01-27T03:41:26.493Z,1.90
2019-01-27T03:42:30.983Z,1.80
2019-01-27T03:43:35.648Z,1.87
2019-01-27T03:44:40.166Z,1.90
2019-01-27T03:45:44.991Z,1.70
2019-01-27T03:46:49.470Z,1.80
2019-01-27T03:47:54.070Z,1.80
2019-01-27T03:48:58.614Z,2.08
2019-01-27T03:50:03.194Z,1.75
2019-01-27T03:51:07.818Z,1.77
2019-01-27T03:52:12.319Z,1.50
2019-01-27T03:53:16.839Z,2.08
2019-01-27T03:54:21.386Z,1.60
2019-01-27T03:55:28.341Z,2.00
2019-01-27T03:56:32.909Z,2.00
2019-01-27T03:57:37.434Z,1.80
2019-01-27T03:58:41.932Z,1.73
2019-01-27T03:59:46.500Z,2.00
2019-01-27T04:00:50.977Z,1.70
2019-01-27T04:01:55.538Z,1.70
2019-01-27T04:03:00.024Z,1.70
2019-01-27T04:04:05.265Z,1.67
2019-01-27T04:05:09.929Z,1.95
2019-01-27T04:06:14.406Z,1.93
2019-01-27T04:07:18.907Z,1.53
2019-01-27T04:08:23.412Z,1.70
2019-01-27T04:09:27.943Z,1.80
2019-01-27T04:10:32.461Z,1.60
2019-01-27T04:11:36.967Z,1.52
2019-01-27T04:12:41.483Z,1.70
2019-01-27T04:13:45.995Z,1.82
2019-01-27T04:14:50.641Z,1.45
2019-01-27T04:15:55.247Z,1.75
2019-01-27T04:16:59.745Z,1.80
2019-01-27T04:18:04.442Z,1.40
2019-01-27T04:19:08.968Z,1.72
2019-01-27T04:20:16.062Z,1.40
2019-01-27T04:21:20.659Z,1.62
2019-01-27T04:22:25.212Z,1.73
2019-01-27T04:23:29.733Z,1.50
2019-01-27T04:24:34.222Z,1.65
2019-01-27T04:25:40.351Z,1.70
2019-01-27T04:26:44.875Z,1.67
2019-01-27T04:27:49.360Z,1.70
2019-01-27T04:28:53.852Z,1.53
2019-01-27T04:29:58.377Z,1.70
2019-01-27T04:31:02.846Z,1.50
2019-01-27T04:32:07.386Z,1.70
2019-01-27T04:33:11.904Z,1.60
2019-01-27T04:34:16.502Z,1.30
2019-01-27T04:35:21.074Z,1.40
2019-01-27T04:36:25.569Z,1.70
2019-01-27T04:37:30.085Z,1.43
2019-01-27T04:38:34.641Z,1.70
2019-01-27T04:39:39.174Z,1.50
2019-01-27T04:40:43.806Z,1.70
2019-01-27T04:41:48.300Z,1.70
2019-01-27T04:42:52.870Z,1.80
2019-01-27T04:43:57.350Z,1.80
2019-01-27T04:45:01.856Z,1.73
2019-01-27T04:46:06.361Z,1.50
2019-01-27T04:47:10.851Z,1.40
2019-01-27T04:48:15.385Z,1.47
2019-01-27T04:49:19.953Z,1.30
2019-01-27T04:50:24.482Z,1.30
2019-01-27T04:51:29.023Z,1.65
2019-01-27T04:52:33.554Z,1.70
2019-01-27T04:53:38.082Z,1.90
2019-01-27T04:54:42.600Z,1.52
2019-01-27T04:55:48.391Z,1.30
2019-01-27T04:56:52.915Z,1.72
2019-01-27T04:57:57.420Z,1.70
2019-01-27T04:59:01.918Z,1.60
2019-01-27T05:00:25.113Z,1.52
2019-01-27T05:01:29.753Z,1.60
2019-01-27T05:02:35.998Z,1.63
2019-01-27T05:03:42.142Z,1.77
2019-01-27T05:04:46.646Z,1.53
2019-01-27T05:05:51.200Z,1.47
2019-01-27T05:06:55.729Z,1.77
2019-01-27T05:08:00.345Z,1.80
2019-01-27T05:09:08.901Z,1.92
2019-01-27T05:10:14.491Z,1.70
2019-01-27T05:11:18.996Z,2.00
2019-01-27T05:12:23.561Z,1.80
2019-01-27T05:13:28.078Z,1.70
2019-01-27T05:14:32.545Z,1.70
2019-01-27T05:15:37.081Z,1.92
2019-01-27T05:16:41.623Z,1.75
2019-01-27T05:17:46.137Z,1.67
2019-01-27T05:18:50.614Z,1.60
2019-01-27T05:19:55.151Z,1.60
2019-01-27T05:20:59.646Z,1.70
2019-01-27T05:22:04.241Z,1.40
2019-01-27T05:23:08.766Z,1.40
2019-01-27T05:24:13.278Z,1.70
2019-01-27T05:25:18.370Z,1.47
2019-01-27T05:26:22.918Z,1.70
2019-01-27T05:27:27.490Z,1.47
2019-01-27T05:28:32.011Z,1.70
2019-01-27T05:29:36.620Z,1.70
2019-01-27T05:30:41.130Z,1.50
2019-01-27T05:31:45.708Z,1.80
2019-01-27T05:32:50.583Z,1.57
2019-01-27T05:33:55.063Z,1.70
2019-01-27T05:34:59.550Z,1.57
2019-01-27T05:36:04.121Z,1.70
2019-01-27T05:37:08.709Z,1.77
2019-01-27T05:38:13.250Z,1.77
2019-01-27T05:39:17.741Z,1.60
2019-01-27T05:40:23.006Z,1.67
2019-01-27T05:41:27.573Z,1.70
2019-01-27T05:42:32.063Z,1.50
2019-01-27T05:43:36.587Z,1.60
2019-01-27T05:44:41.246Z,1.60
2019-01-27T05:45:45.774Z,1.50
2019-01-27T05:46:50.283Z,1.67
2019-01-27T05:47:54.801Z,1.60
2019-01-27T05:48:59.359Z,1.70
2019-01-27T05:50:06.564Z,1.30
2019-01-27T05:51:11.067Z,1.60
2019-01-27T05:52:15.588Z,1.70
2019-01-27T05:53:20.147Z,1.43
2019-01-27T05:54:24.655Z,1.70
2019-01-27T05:55:29.164Z,1.80
2019-01-27T05:56:33.689Z,1.53
2019-01-27T05:57:38.194Z,1.40
2019-01-27T05:58:42.686Z,1.77
2019-01-27T05:59:47.868Z,1.60
2019-01-27T06:00:52.398Z,1.73
2019-01-27T06:01:56.953Z,1.60
2019-01-27T06:03:01.495Z,1.70
2019-01-27T06:04:06.009Z,1.57
2019-01-27T06:05:10.568Z,1.33
2019-01-27T06:06:15.126Z,1.60
2019-01-27T06:07:19.725Z,1.40
2019-01-27T06:08:24.255Z,1.60
2019-01-27T06:09:29.786Z,1.12
2019-01-27T06:10:34.325Z,1.60
2019-01-27T06:11:38.844Z,1.70
2019-01-27T06:12:44.084Z,1.47
2019-01-27T06:13:48.605Z,1.47
2019-01-27T06:14:53.122Z,1.60
2019-01-27T06:15:57.731Z,1.47
2019-01-27T06:17:02.267Z,1.40
2019-01-27T06:18:07.758Z,1.30
2019-01-27T06:19:12.240Z,1.40
2019-01-27T06:20:17.600Z,1.27
2019-01-27T06:21:22.070Z,1.50
2019-01-27T06:22:26.582Z,1.40
2019-01-27T06:23:31.080Z,1.50
2019-01-27T06:24:35.592Z,1.55
2019-01-27T06:25:40.137Z,1.40
2019-01-27T06:26:44.691Z,1.52
2019-01-27T06:27:49.262Z,1.40
2019-01-27T06:28:53.761Z,1.60
2019-01-27T06:29:58.330Z,1.57
2019-01-27T06:31:02.954Z,1.35
2019-01-27T06:32:09.164Z,1.30
2019-01-27T06:33:24.296Z,1.27
2019-01-27T06:34:28.823Z,1.30
2019-01-27T06:35:34.303Z,1.20
2019-01-27T06:36:38.861Z,1.30
2019-01-27T06:37:43.413Z,1.10
2019-01-27T06:38:47.972Z,1.30
2019-01-27T06:39:53.659Z,1.37
2019-01-27T06:40:58.137Z,1.43
2019-01-27T06:42:02.655Z,1.30
2019-01-27T06:43:07.264Z,1.07
2019-01-27T06:44:11.781Z,1.17
2019-01-27T06:45:16.367Z,1.05
2019-01-27T06:46:22.089Z,1.20
2019-01-27T06:47:26.601Z,1.25
2019-01-27T06:48:31.179Z,1.20
2019-01-27T06:49:35.899Z,1.20
2019-01-27T06:50:40.443Z,1.03
2019-01-27T06:51:44.960Z,1.30
2019-01-27T06:52:49.563Z,1.15
2019-01-27T06:53:55.589Z,1.10
2019-01-27T06:55:00.254Z,1.17
2019-01-27T06:56:06.520Z,1.30
2019-01-27T06:57:11.058Z,1.32
2019-01-27T06:58:15.572Z,1.20
2019-01-27T06:59:28.245Z,1.20
2019-01-27T07:00:40.237Z,1.20
2019-01-27T07:01:46.475Z,1.10
2019-01-27T07:02:52.677Z,1.10
2019-01-27T07:04:01.826Z,1.17
2019-01-27T07:05:10.289Z,1.20
2019-01-27T07:06:28.358Z,1.20
2019-01-27T07:07:40.311Z,1.32
2019-01-27T07:08:58.112Z,1.07
2019-01-27T07:10:19.667Z,1.20
2019-01-27T07:11:31.564Z,1.20
2019-01-27T07:12:37.768Z,0.97
2019-01-27T07:14:00.910Z,1.30
2019-01-27T07:15:10.485Z,1.10
2019-01-27T07:16:19.461Z,1.07
2019-01-27T07:17:43.739Z,1.27
2019-01-27T07:18:56.087Z,1.20
2019-01-27T07:20:02.386Z,1.20
2019-01-27T07:21:08.542Z,1.10
2019-01-27T07:22:20.314Z,1.10
2019-01-27T07:23:38.789Z,0.90
2019-01-27T07:24:53.149Z,1.07
2019-01-27T07:26:08.200Z,1.10
2019-01-27T07:27:32.251Z,1.20
2019-01-27T07:28:41.360Z,0.90
2019-01-27T07:29:53.576Z,1.00
2019-01-27T07:31:01.555Z,1.10
2019-01-27T07:32:07.707Z,1.10
2019-01-27T07:33:29.905Z,1.00
2019-01-27T07:34:38.550Z,0.95
2019-01-27T07:36:00.811Z,0.83
2019-01-27T07:37:23.144Z,1.10
2019-01-27T07:38:30.831Z,1.00
2019-01-27T07:39:37.041Z,0.90
2019-01-27T07:40:58.451Z,1.07
2019-01-27T07:42:07.504Z,1.03
2019-01-27T07:43:19.232Z,0.90
2019-01-27T07:44:34.484Z,1.00
2019-01-27T07:45:40.946Z,0.90
2019-01-27T07:47:03.724Z,0.80
2019-01-27T07:48:12.551Z,0.90
2019-01-27T07:49:25.436Z,1.00
2019-01-27T07:50:37.388Z,1.00
2019-01-27T07:51:46.597Z,1.40
2019-01-27T07:52:52.781Z,0.95
2019-01-27T07:54:04.753Z,1.10
2019-01-27T07:55:27.187Z,1.00
2019-01-27T07:56:33.343Z,1.12
2019-01-27T07:57:42.574Z,0.90
2019-01-27T07:58:51.498Z,0.82
2019-01-27T08:00:12.942Z,1.00
2019-01-27T08:01:19.230Z,0.90
2019-01-27T08:02:34.686Z,0.90
2019-01-27T08:03:57.122Z,1.10
2019-01-27T08:05:03.338Z,1.00
2019-01-27T08:06:09.679Z,1.10
2019-01-27T08:07:31.299Z,1.00
2019-01-27T08:08:37.845Z,0.90
2019-01-27T08:09:46.961Z,0.80
2019-01-27T08:11:09.865Z,1.00
2019-01-27T08:12:18.662Z,0.82
2019-01-27T08:13:24.996Z,0.87
2019-01-27T08:14:36.573Z,0.88
2019-01-27T08:15:48.854Z,0.90
2019-01-27T08:17:07.042Z,1.10
2019-01-27T08:18:13.356Z,1.05
2019-01-27T08:19:20.011Z,1.02
2019-01-27T08:20:29.234Z,1.00
2019-01-27T08:21:43.224Z,1.15
2019-01-27T08:23:02.996Z,1.10
2019-01-27T08:24:15.088Z,0.90
2019-01-27T08:25:24.636Z,0.90
2019-01-27T08:26:33.800Z,0.93
2019-01-27T08:27:39.963Z,0.90
2019-01-27T08:28:46.196Z,0.93
2019-01-27T08:29:55.673Z,0.90
2019-01-27T08:31:10.229Z,1.00
2019-01-27T08:32:32.772Z,1.00
2019-01-27T08:33:55.606Z,0.93
2019-01-27T08:35:04.881Z,0.80
2019-01-27T08:36:20.383Z,0.90
2019-01-27T08:37:26.610Z,0.72
2019-01-27T08:38:32.773Z,0.82
2019-01-27T08:39:46.243Z,0.70
2019-01-27T08:40:52.385Z,0.85
2019-01-27T08:42:10.375Z,1.00
2019-01-27T08:43:34.596Z,1.10
2019-01-27T08:44:43.484Z,0.80
2019-01-27T08:45:49.783Z,1.02
2019-01-27T08:46:55.984Z,0.80
2019-01-27T08:48:00.517Z,0.98
2019-01-27T08:49:05.181Z,0.95
2019-01-27T08:50:12.822Z,1.05
2019-01-27T08:51:17.321Z,1.00
2019-01-27T08:52:22.678Z,1.10
2019-01-27T08:53:27.455Z,1.03
2019-01-27T08:54:33.205Z,1.20
2019-01-27T08:55:40.298Z,1.30
2019-01-27T08:56:45.463Z,1.40
2019-01-27T08:57:50.058Z,1.33
2019-01-27T08:58:56.783Z,1.20
2019-01-27T09:00:01.429Z,1.22
2019-01-27T09:01:07.790Z,1.37
2019-01-27T09:02:16.750Z,1.30
2019-01-27T09:03:31.467Z,0.93
2019-01-27T09:04:40.273Z,1.10
2019-01-27T09:05:46.626Z,1.10
2019-01-27T09:07:09.296Z,1.10
2019-01-27T09:08:18.451Z,1.00
2019-01-27T09:09:30.291Z,0.98
2019-01-27T09:10:40.211Z,1.00
2019-01-27T09:11:52.616Z,1.00
2019-01-27T09:12:59.325Z,1.03
2019-01-27T09:14:20.152Z,1.00
2019-01-27T09:15:41.538Z,1.10
2019-01-27T09:16:57.330Z,1.10
2019-01-27T09:18:06.889Z,1.20
2019-01-27T09:19:13.580Z,1.00
2019-01-27T09:20:19.802Z,1.30
2019-01-27T09:21:28.833Z,1.20
2019-01-27T09:22:35.173Z,1.13
2019-01-27T09:23:57.772Z,1.10
2019-01-27T09:25:06.552Z,1.00
2019-01-27T09:26:15.629Z,1.00
2019-01-27T09:27:21.759Z,1.10
2019-01-27T09:28:27.882Z,0.90
2019-01-27T09:29:40.026Z,1.20
2019-01-27T09:30:49.381Z,1.12
2019-01-27T09:32:01.714Z,1.20
2019-01-27T09:33:13.820Z,1.00
2019-01-27T09:34:25.842Z,1.00
2019-01-27T09:35:35.145Z,1.10
2019-01-27T09:36:59.652Z,1.00
2019-01-27T09:38:22.340Z,1.05
2019-01-27T09:39:45.244Z,1.10
2019-01-27T09:41:07.638Z,1.10
2019-01-27T09:42:22.530Z,1.15
2019-01-27T09:43:37.808Z,1.10
2019-01-27T09:44:53.139Z,1.00
2019-01-27T09:46:05.432Z,1.00
2019-01-27T09:47:13.323Z,1.20
2019-01-27T09:48:19.604Z,1.20
2019-01-27T09:49:28.470Z,1.10
2019-01-27T09:50:34.747Z,1.25
2019-01-27T09:51:43.891Z,1.20
2019-01-27T09:52:50.035Z,1.27
2019-01-27T09:53:58.942Z,1.05
2019-01-27T09:55:06.156Z,1.20
2019-01-27T09:56:24.336Z,1.20
2019-01-27T09:57:38.963Z,1.40
2019-01-27T09:58:45.142Z,1.40
2019-01-27T09:59:57.283Z,1.70
2019-01-27T10:01:06.323Z,1.80
2019-01-27T10:02:15.469Z,1.70
2019-01-27T10:03:37.730Z,1.70
2019-01-27T10:04:55.966Z,1.80
2019-01-27T10:06:17.979Z,1.67
2019-01-27T10:07:24.117Z,1.60
2019-01-27T10:08:32.787Z,1.90
2019-01-27T10:09:44.914Z,1.62
2019-01-27T10:10:59.971Z,1.45
2019-01-27T10:12:08.073Z,1.40
2019-01-27T10:13:16.916Z,1.20
2019-01-27T10:14:26.217Z,1.30
2019-01-27T10:15:38.245Z,1.27
2019-01-27T10:16:53.413Z,1.17
2019-01-27T10:18:02.603Z,1.17
2019-01-27T10:19:11.746Z,1.40
2019-01-27T10:20:23.999Z,1.37
2019-01-27T10:21:30.357Z,1.40
2019-01-27T10:22:36.501Z,1.30
2019-01-27T10:23:48.876Z,1.30
2019-01-27T10:25:15.986Z,1.20
2019-01-27T10:26:22.211Z,1.17
2019-01-27T10:27:31.386Z,1.15
2019-01-27T10:28:40.517Z,1.13
2019-01-27T10:29:55.376Z,1.20
2019-01-27T10:31:07.287Z,1.07
2019-01-27T10:32:13.511Z,1.30
2019-01-27T10:33:19.857Z,1.20
2019-01-27T10:34:26.166Z,1.10
2019-01-27T10:35:48.770Z,1.35
2019-01-27T10:37:07.924Z,1.30
2019-01-27T10:38:12.493Z,1.20
2019-01-27T10:39:18.818Z,1.30
2019-01-27T10:40:25.032Z,1.10
2019-01-27T10:41:42.944Z,1.17
2019-01-27T10:42:49.255Z,1.12
2019-01-27T10:43:55.399Z,1.20
2019-01-27T10:45:10.428Z,1.00
2019-01-27T10:46:16.718Z,1.30
2019-01-27T10:47:22.961Z,1.30
2019-01-27T10:48:44.194Z,1.33
2019-01-27T10:49:50.348Z,1.20
2019-01-27T10:50:56.521Z,1.30
2019-01-27T10:52:05.652Z,1.25
2019-01-27T10:53:20.934Z,1.20
2019-01-27T10:54:40.778Z,1.10
2019-01-27T10:55:56.160Z,1.15
2019-01-27T10:57:08.464Z,1.20
2019-01-27T10:58:32.976Z,1.20
2019-01-27T10:59:57.135Z,1.30
2019-01-27T11:01:06.394Z,1.22
2019-01-27T11:02:36.748Z,1.20
2019-01-27T11:03:41.271Z,1.20
2019-01-27T11:04:49.854Z,1.20
2019-01-27T11:05:56.022Z,1.40
2019-01-27T11:07:18.281Z,1.30
2019-01-27T11:08:24.467Z,1.20
2019-01-27T11:09:49.346Z,1.00
2019-01-27T11:10:55.491Z,1.10
2019-01-27T11:12:10.894Z,0.98
2019-01-27T11:13:19.755Z,1.10
2019-01-27T11:14:28.715Z,1.32
2019-01-27T11:15:37.957Z,1.12
2019-01-27T11:16:56.240Z,1.00
2019-01-27T11:18:02.405Z,0.87
2019-01-27T11:19:27.100Z,1.00
2019-01-27T11:20:49.936Z,1.10
2019-01-27T11:22:12.536Z,1.07
2019-01-27T11:23:27.596Z,1.10
2019-01-27T11:24:43.931Z,1.20
2019-01-27T11:26:00.820Z,1.10
2019-01-27T11:27:13.098Z,1.22
2019-01-27T11:28:34.365Z,1.00
2019-01-27T11:29:52.243Z,1.17
2019-01-27T11:30:58.412Z,1.10
2019-01-27T11:32:04.572Z,0.80
2019-01-27T11:33:25.888Z,1.02
2019-01-27T11:34:44.139Z,1.10
2019-01-27T11:36:08.551Z,1.00
2019-01-27T11:37:16.206Z,1.20
2019-01-27T11:38:40.567Z,1.10
2019-01-27T11:40:04.935Z,1.10
2019-01-27T11:41:29.771Z,1.17
2019-01-27T11:42:42.126Z,1.10
2019-01-27T11:43:53.913Z,1.02
2019-01-27T11:45:16.629Z,0.90
2019-01-27T11:46:25.448Z,1.03
2019-01-27T11:47:32.235Z,1.00
2019-01-27T11:48:38.400Z,1.10
2019-01-27T11:49:44.658Z,1.05
2019-01-27T11:50:50.802Z,1.03
2019-01-27T11:51:55.295Z,0.90
2019-01-27T11:52:59.829Z,1.03
2019-01-27T11:54:04.541Z,1.00
2019-01-27T11:55:09.948Z,0.93
2019-01-27T11:56:16.157Z,1.20
2019-01-27T11:57:20.743Z,1.02
2019-01-27T11:58:25.423Z,1.10
2019-01-27T11:59:29.968Z,0.90
2019-01-27T12:00:36.395Z,1.00
2019-01-27T12:01:41.029Z,1.07
2019-01-27T12:02:46.742Z,0.90
2019-01-27T12:03:53.002Z,1.30
2019-01-27T12:04:57.583Z,1.00
2019-01-27T12:06:02.118Z,0.97
2019-01-27T12:07:08.862Z,1.00
2019-01-27T12:08:13.448Z,1.10
2019-01-27T12:09:18.017Z,0.98
2019-01-27T12:10:23.444Z,0.90
2019-01-27T12:11:27.966Z,0.90
2019-01-27T12:12:32.557Z,0.70
2019-01-27T12:13:37.512Z,0.90
2019-01-27T12:14:42.127Z,0.90
2019-01-27T12:15:46.796Z,0.95
2019-01-27T12:16:51.335Z,1.10
2019-01-27T12:17:57.716Z,0.80
2019-01-27T12:19:02.669Z,0.98
2019-01-27T12:20:10.724Z,1.15
2019-01-27T12:21:15.379Z,1.00
2019-01-27T12:22:19.942Z,1.00
2019-01-27T12:23:24.537Z,0.90
2019-01-27T12:24:30.562Z,1.00
2019-01-27T12:25:35.465Z,0.80
2019-01-27T12:26:40.032Z,0.90
2019-01-27T12:27:44.692Z,0.90
2019-01-27T12:28:49.223Z,1.10
2019-01-27T12:29:53.784Z,1.40
2019-01-27T12:30:58.343Z,1.10
2019-01-27T12:32:02.967Z,1.00
2019-01-27T12:33:07.607Z,1.00
2019-01-27T12:34:12.852Z,0.90
2019-01-27T12:35:17.474Z,0.90
2019-01-27T12:36:24.883Z,1.15
2019-01-27T12:37:29.441Z,0.93
2019-01-27T12:38:34.042Z,0.80
2019-01-27T12:39:38.565Z,1.07
2019-01-27T12:40:43.344Z,0.98
2019-01-27T12:41:47.884Z,1.00
2019-01-27T12:42:52.428Z,1.00
2019-01-27T12:43:57.014Z,1.13
2019-01-27T12:45:01.544Z,0.93
2019-01-27T12:46:06.113Z,0.90
2019-01-27T12:47:10.656Z,1.00
2019-01-27T12:48:15.255Z,1.00
2019-01-27T12:49:19.791Z,0.90
2019-01-27T12:50:24.311Z,0.80
2019-01-27T12:51:29.939Z,0.87
2019-01-27T12:52:34.482Z,1.00
2019-01-27T12:53:38.981Z,0.93
2019-01-27T12:54:43.497Z,0.90
2019-01-27T12:55:48.045Z,1.02
2019-01-27T12:56:52.677Z,0.85
2019-01-27T12:57:57.185Z,1.00
2019-01-27T12:59:01.748Z,1.00
2019-01-27T13:00:14.966Z,0.82
2019-01-27T13:01:19.561Z,1.00
2019-01-27T13:02:24.152Z,1.00
2019-01-27T13:03:30.066Z,0.93
2019-01-27T13:04:34.882Z,0.90
2019-01-27T13:05:41.110Z,0.90
2019-01-27T13:06:45.675Z,0.80
2019-01-27T13:07:51.701Z,1.10
2019-01-27T13:08:58.270Z,1.02
2019-01-27T13:10:02.828Z,1.07
2019-01-27T13:11:07.411Z,1.17
2019-01-27T13:12:11.930Z,1.10
2019-01-27T13:13:17.189Z,0.90
2019-01-27T13:14:21.958Z,1.00
2019-01-27T13:15:26.640Z,1.00
2019-01-27T13:16:31.284Z,1.10
2019-01-27T13:17:36.401Z,0.82
2019-01-27T13:18:41.353Z,0.90
2019-01-27T13:19:46.048Z,0.80
2019-01-27T13:20:50.608Z,1.07
2019-01-27T13:21:55.120Z,1.00
2019-01-27T13:22:59.655Z,0.75
2019-01-27T13:24:04.172Z,1.10
2019-01-27T13:25:11.931Z,1.10
2019-01-27T13:26:16.470Z,1.00
2019-01-27T13:27:21.263Z,1.10
2019-01-27T13:28:25.941Z,1.10
2019-01-27T13:29:30.465Z,0.80
2019-01-27T13:30:35.042Z,1.10
2019-01-27T13:31:39.574Z,1.02
2019-01-27T13:32:44.228Z,1.00
2019-01-27T13:33:48.748Z,1.00
2019-01-27T13:34:56.296Z,1.10
2019-01-27T13:35:59.617Z,1.07
2019-01-27T13:37:04.261Z,1.42
2019-01-27T13:38:08.843Z,0.90
2019-01-27T13:39:13.374Z,1.42
2019-01-27T13:40:25.261Z,1.20
2019-01-27T13:41:29.835Z,1.10
2019-01-27T13:42:34.442Z,0.90
2019-01-27T13:43:38.954Z,1.10
2019-01-27T13:44:43.505Z,1.10
2019-01-27T13:45:48.055Z,0.90
2019-01-27T13:46:52.634Z,0.90
2019-01-27T13:47:59.202Z,0.90
2019-01-27T13:49:04.581Z,0.72
2019-01-27T13:50:12.128Z,0.80
2019-01-27T13:51:16.712Z,0.90
2019-01-27T13:52:25.681Z,0.80
2019-01-27T13:53:30.796Z,0.80
2019-01-27T13:54:35.392Z,0.90
2019-01-27T13:55:39.898Z,0.80
2019-01-27T13:56:44.401Z,0.60
2019-01-27T13:57:49.335Z,0.70
2019-01-27T13:58:56.774Z,0.63
2019-01-27T14:00:01.969Z,0.73
2019-01-27T14:01:06.723Z,0.70
2019-01-27T14:02:11.477Z,0.70
2019-01-27T14:03:16.017Z,0.80
2019-01-27T14:04:21.731Z,0.80
2019-01-27T14:05:26.326Z,0.70
2019-01-27T14:06:30.863Z,0.80
2019-01-27T14:07:35.430Z,0.80
2019-01-27T14:08:39.964Z,0.78
2019-01-27T14:09:46.749Z,0.70
2019-01-27T14:10:53.069Z,0.60
2019-01-27T14:11:59.273Z,0.80
2019-01-27T14:13:04.226Z,0.70
2019-01-27T14:14:08.728Z,0.60
2019-01-27T14:15:25.427Z,0.73
2019-01-27T14:16:30.055Z,0.70
2019-01-27T14:17:36.108Z,0.75
2019-01-27T14:18:40.647Z,0.70
2019-01-27T14:19:45.322Z,0.53
2019-01-27T14:20:49.912Z,0.60
2019-01-27T14:21:54.513Z,0.60
2019-01-27T14:22:59.287Z,0.90
2019-01-27T14:24:04.250Z,0.50
2019-01-27T14:25:12.092Z,0.70
2019-01-27T14:26:16.704Z,0.80
2019-01-27T14:27:21.420Z,0.62
2019-01-27T14:28:26.087Z,0.65
2019-01-27T14:29:30.654Z,0.70
2019-01-27T14:30:38.244Z,0.63
2019-01-27T14:31:43.217Z,0.80
2019-01-27T14:32:48.127Z,0.62
2019-01-27T14:33:52.643Z,0.50
2019-01-27T14:34:57.557Z,0.80
2019-01-27T14:36:02.265Z,0.60
2019-01-27T14:37:08.416Z,0.53
2019-01-27T14:38:13.117Z,0.60
2019-01-27T14:39:18.034Z,0.57
2019-01-27T14:40:26.523Z,0.50
2019-01-27T14:41:32.412Z,0.80
2019-01-27T14:42:37.224Z,0.80
2019-01-27T14:43:41.913Z,0.72
2019-01-27T14:44:46.635Z,0.70
2019-01-27T14:45:51.291Z,0.70
2019-01-27T14:46:57.150Z,0.80
2019-01-27T14:48:02.689Z,0.60
2019-01-27T14:49:07.480Z,0.53
2019-01-27T14:50:15.387Z,0.80
2019-01-27T14:51:21.561Z,0.70
2019-01-27T14:52:27.645Z,0.60
2019-01-27T14:53:32.298Z,0.57
2019-01-27T14:54:37.474Z,0.60